Terminal Aerodrome Forecast
Issued by NWS Pittsburgh, PA

Home | Current Version | Previous Version | Text Only | Print | Product List | Glossary On
Versions: 1 2 3 4 5 6 7 8 9 10 11 12 13 14 15 16 17 18 19 20 21 22 23 24 25 26 27 28
000
FTUS41 KPBZ 290233 AAA
TAFPIT
TAF AMD
KPIT 290233Z 2903/3006 VRB05KT P6SM SKC
     FM291400 16005KT P6SM SCT040
     FM291800 17006KT P6SM BKN080
     FM292000 19005KT P6SM VCTS BKN040CB OVC080
     FM300100 VRB05KT P6SM OVC080=

USA.gov is the U.S. government's official web portal to all federal, state and local government web resources and services.